Waltersburg, Pennsylvania
Current Conditions -  °F | °C
As of 1:53 AM on Wednesday 22 Oct 2014 (Local Time) from KMGW Reporting Station
Overcast Overcast  
Wind Chill: 46°   Ceiling: 500
Heat Index: 48°   Visibility: 10mi
Dew Point: 44°   Wind: 5mph
Humidity: 86%   Direction: 300°WNW
Pressure: 30.03"   Gusts: NA
Location:  39.98°N, 79.76°W
Report Text: KMGW 220553Z AUTO 30004KT 10SM OVC005 09/07 A3003 RMK AO2 RAE07 CIG 004V010 SLP169 P0001 60001 T00890067 10100 20089 58004 TSNO
Loading
Personal Weather Stations






























Interactive Weather Map
Tropical Storm Tracking
New forecast layout! Learn more

10-Day Weather Forecast

Advertisements
Track Severe Weather on mobile